sensor_id;sensor_type;location;lat;lon;timestamp;P1;durP1;ratioP1;P2;durP2;ratioP2
78228;SDS011;67502;49.142;9.124;2023-03-05T15:37:54;0.30;;;0.20;;
78228;SDS011;67502;49.142;9.124;2023-03-05T15:40:22;0.85;;;0.25;;
78228;SDS011;67502;49.142;9.124;2023-03-05T15:42:49;0.50;;;0.20;;
78228;SDS011;67502;49.142;9.124;2023-03-05T15:45:16;0.73;;;0.30;;
78228;SDS011;67502;49.142;9.124;2023-03-05T15:47:43;0.82;;;0.38;;
78228;SDS011;67502;49.142;9.124;2023-03-05T15:58:32;0.10;;;0.10;;
78228;SDS011;67502;49.142;9.124;2023-03-05T16:03:24;0.10;;;0.10;;
78228;SDS011;67502;49.142;9.124;2023-03-05T16:05:51;0.10;;;0.10;;
78228;SDS011;67502;49.142;9.124;2023-03-05T16:08:17;0.10;;;0.10;;
78228;SDS011;67502;49.142;9.124;2023-03-05T16:10:44;0.22;;;0.22;;
78228;SDS011;67502;49.142;9.124;2023-03-05T16:13:12;0.10;;;0.10;;
78228;SDS011;67502;49.142;9.124;2023-03-05T16:15:41;0.10;;;0.10;;
78228;SDS011;67502;49.142;9.124;2023-03-05T16:18:09;0.10;;;0.10;;
78228;SDS011;67502;49.142;9.124;2023-03-05T16:20:39;0.10;;;0.10;;
78228;SDS011;67502;49.142;9.124;2023-03-05T16:23:05;0.00;;;0.00;;
78228;SDS011;67502;49.142;9.124;2023-03-05T16:27:59;0.10;;;0.10;;
78228;SDS011;67502;49.142;9.124;2023-03-05T16:30:25;0.13;;;0.13;;
78228;SDS011;67502;49.142;9.124;2023-03-05T16:32:52;0.20;;;0.17;;
78228;SDS011;67502;49.142;9.124;2023-03-05T16:35:19;0.10;;;0.10;;
78228;SDS011;67502;49.142;9.124;2023-03-05T16:37:45;0.00;;;0.00;;
78228;SDS011;67502;49.142;9.124;2023-03-05T16:40:13;0.10;;;0.10;;
78228;SDS011;67502;49.142;9.124;2023-03-05T16:42:40;0.00;;;0.00;;
78228;SDS011;67502;49.142;9.124;2023-03-05T16:47:34;0.10;;;0.10;;
78228;SDS011;67502;49.142;9.124;2023-03-05T16:52:35;0.00;;;0.00;;
78228;SDS011;67502;49.142;9.124;2023-03-05T16:55:02;0.00;;;0.00;;
78228;SDS011;67502;49.142;9.124;2023-03-05T16:57:29;0.00;;;0.00;;
78228;SDS011;67502;49.142;9.124;2023-03-05T16:59:56;0.00;;;0.00;;
78228;SDS011;67502;49.142;9.124;2023-03-05T17:02:23;0.00;;;0.00;;
78228;SDS011;67502;49.142;9.124;2023-03-05T17:04:50;0.00;;;0.00;;
78228;SDS011;67502;49.142;9.124;2023-03-05T17:07:16;0.00;;;0.00;;
78228;SDS011;67502;49.142;9.124;2023-03-05T17:12:10;0.00;;;0.00;;
78228;SDS011;67502;49.142;9.124;2023-03-05T17:14:37;0.05;;;0.05;;
78228;SDS011;67502;49.142;9.124;2023-03-05T17:17:03;0.00;;;0.00;;
78228;SDS011;67502;49.142;9.124;2023-03-05T17:19:30;0.00;;;0.00;;
78228;SDS011;67502;49.142;9.124;2023-03-05T17:21:57;0.03;;;0.03;;
78228;SDS011;67502;49.142;9.124;2023-03-05T17:24:23;0.00;;;0.00;;
78228;SDS011;67502;49.142;9.124;2023-03-05T17:26:50;0.08;;;0.03;;
78228;SDS011;67502;49.142;9.124;2023-03-05T17:29:16;0.00;;;0.00;;
78228;SDS011;67502;49.142;9.124;2023-03-05T17:31:44;0.00;;;0.00;;
78228;SDS011;67502;49.142;9.124;2023-03-05T17:34:11;0.00;;;0.00;;
78228;SDS011;67502;49.142;9.124;2023-03-05T17:36:38;0.00;;;0.00;;
78228;SDS011;67502;49.142;9.124;2023-03-05T17:39:04;0.00;;;0.00;;
78228;SDS011;67502;49.142;9.124;2023-03-05T17:41:31;0.00;;;0.00;;
78228;SDS011;67502;49.142;9.124;2023-03-05T17:43:57;0.05;;;0.00;;
78228;SDS011;67502;49.142;9.124;2023-03-05T17:46:24;0.00;;;0.00;;
78228;SDS011;67502;49.142;9.124;2023-03-05T17:48:50;0.05;;;0.00;;
78228;SDS011;67502;49.142;9.124;2023-03-05T17:51:17;0.00;;;0.00;;
78228;SDS011;67502;49.142;9.124;2023-03-05T17:53:44;0.10;;;0.00;;
78228;SDS011;67502;49.142;9.124;2023-03-05T17:56:11;0.13;;;0.10;;
78228;SDS011;67502;49.142;9.124;2023-03-05T17:58:39;0.10;;;0.00;;
78228;SDS011;67502;49.142;9.124;2023-03-05T18:01:06;0.00;;;0.00;;
78228;SDS011;67502;49.142;9.124;2023-03-05T18:03:33;0.00;;;0.00;;
78228;SDS011;67502;49.142;9.124;2023-03-05T18:06:00;0.00;;;0.00;;
78228;SDS011;67502;49.142;9.124;2023-03-05T18:08:28;0.00;;;0.00;;
78228;SDS011;67502;49.142;9.124;2023-03-05T18:10:55;0.00;;;0.00;;
78228;SDS011;67502;49.142;9.124;2023-03-05T18:13:21;0.00;;;0.00;;
78228;SDS011;67502;49.142;9.124;2023-03-05T18:15:48;0.00;;;0.00;;
78228;SDS011;67502;49.142;9.124;2023-03-05T18:18:15;0.00;;;0.00;;
78228;SDS011;67502;49.142;9.124;2023-03-05T18:20:43;0.00;;;0.00;;
78228;SDS011;67502;49.142;9.124;2023-03-05T18:23:10;0.08;;;0.00;;
78228;SDS011;67502;49.142;9.124;2023-03-05T18:25:37;0.00;;;0.00;;
78228;SDS011;67502;49.142;9.124;2023-03-05T18:28:07;0.00;;;0.00;;
78228;SDS011;67502;49.142;9.124;2023-03-05T18:30:35;0.28;;;0.05;;
78228;SDS011;67502;49.142;9.124;2023-03-05T18:33:03;0.00;;;0.00;;
78228;SDS011;67502;49.142;9.124;2023-03-05T18:35:30;0.00;;;0.00;;
78228;SDS011;67502;49.142;9.124;2023-03-05T18:37:58;0.10;;;0.10;;
78228;SDS011;67502;49.142;9.124;2023-03-05T18:42:54;0.05;;;0.00;;
78228;SDS011;67502;49.142;9.124;2023-03-05T18:45:20;0.10;;;0.10;;
78228;SDS011;67502;49.142;9.124;2023-03-05T18:47:48;0.10;;;0.03;;
78228;SDS011;67502;49.142;9.124;2023-03-05T18:50:19;0.10;;;0.10;;
78228;SDS011;67502;49.142;9.124;2023-03-05T18:52:46;0.00;;;0.00;;
78228;SDS011;67502;49.142;9.124;2023-03-05T18:55:14;0.00;;;0.00;;
78228;SDS011;67502;49.142;9.124;2023-03-05T18:57:42;0.00;;;0.00;;
78228;SDS011;67502;49.142;9.124;2023-03-05T19:00:09;0.13;;;0.00;;
78228;SDS011;67502;49.142;9.124;2023-03-05T19:02:39;0.10;;;0.00;;
78228;SDS011;67502;49.142;9.124;2023-03-05T19:05:05;0.10;;;0.10;;
78228;SDS011;67502;49.142;9.124;2023-03-05T19:07:32;0.00;;;0.00;;
78228;SDS011;67502;49.142;9.124;2023-03-05T19:10:00;0.00;;;0.00;;
78228;SDS011;67502;49.142;9.124;2023-03-05T19:12:36;0.00;;;0.00;;
78228;SDS011;67502;49.142;9.124;2023-03-05T19:15:11;0.00;;;0.00;;
78228;SDS011;67502;49.142;9.124;2023-03-05T19:17:38;0.10;;;0.10;;
78228;SDS011;67502;49.142;9.124;2023-03-05T19:22:33;0.00;;;0.00;;
78228;SDS011;67502;49.142;9.124;2023-03-05T19:24:59;0.00;;;0.00;;
78228;SDS011;67502;49.142;9.124;2023-03-05T19:27:26;0.20;;;0.20;;
78228;SDS011;67502;49.142;9.124;2023-03-05T19:29:54;0.10;;;0.03;;
78228;SDS011;67502;49.142;9.124;2023-03-05T19:32:20;0.10;;;0.10;;
78228;SDS011;67502;49.142;9.124;2023-03-05T19:34:49;0.00;;;0.00;;
78228;SDS011;67502;49.142;9.124;2023-03-05T19:37:15;0.00;;;0.00;;
78228;SDS011;67502;49.142;9.124;2023-03-05T19:39:43;0.20;;;0.20;;
78228;SDS011;67502;49.142;9.124;2023-03-05T19:42:09;0.00;;;0.00;;
78228;SDS011;67502;49.142;9.124;2023-03-05T19:44:36;0.03;;;0.03;;
78228;SDS011;67502;49.142;9.124;2023-03-05T19:47:03;0.10;;;0.10;;
78228;SDS011;67502;49.142;9.124;2023-03-05T19:51:56;0.00;;;0.00;;
78228;SDS011;67502;49.142;9.124;2023-03-05T19:54:23;0.00;;;0.00;;
78228;SDS011;67502;49.142;9.124;2023-03-05T19:56:50;0.22;;;0.10;;
78228;SDS011;67502;49.142;9.124;2023-03-05T19:59:20;0.00;;;0.00;;
78228;SDS011;67502;49.142;9.124;2023-03-05T20:01:47;0.13;;;0.10;;
78228;SDS011;67502;49.142;9.124;2023-03-05T20:04:16;0.00;;;0.00;;
78228;SDS011;67502;49.142;9.124;2023-03-05T20:06:44;0.00;;;0.00;;
78228;SDS011;67502;49.142;9.124;2023-03-05T20:09:11;0.00;;;0.00;;
78228;SDS011;67502;49.142;9.124;2023-03-05T20:14:05;0.03;;;0.03;;
78228;SDS011;67502;49.142;9.124;2023-03-05T20:16:32;0.00;;;0.00;;
78228;SDS011;67502;49.142;9.124;2023-03-05T20:19:01;0.00;;;0.00;;
78228;SDS011;67502;49.142;9.124;2023-03-05T20:21:32;0.00;;;0.00;;
78228;SDS011;67502;49.142;9.124;2023-03-05T20:24:02;0.10;;;0.10;;
78228;SDS011;67502;49.142;9.124;2023-03-05T20:26:35;0.00;;;0.00;;
78228;SDS011;67502;49.142;9.124;2023-03-05T20:29:04;0.10;;;0.10;;
78228;SDS011;67502;49.142;9.124;2023-03-05T21:31:15;0.00;;;0.00;;
78228;SDS011;67502;49.142;9.124;2023-03-05T21:33:45;0.00;;;0.00;;
78228;SDS011;67502;49.142;9.124;2023-03-05T21:36:12;0.00;;;0.00;;
78228;SDS011;67502;49.142;9.124;2023-03-05T21:38:47;0.03;;;0.00;;
78228;SDS011;67502;49.142;9.124;2023-03-05T21:41:14;0.00;;;0.00;;
78228;SDS011;67502;49.142;9.124;2023-03-05T21:43:43;0.00;;;0.00;;
78228;SDS011;67502;49.142;9.124;2023-03-05T21:46:10;0.00;;;0.00;;
78228;SDS011;67502;49.142;9.124;2023-03-05T21:50:49;0.00;;;0.00;;
